Darstellungsparameter: Aktuell verwendete Einstellungen:
Skalierung der Graphiken ... ?
xyx+y,   Skalierungsfaktor:      Skalierung: Modus: x, Faktor: 1
Darstellungszeitraum ... ?
Vom - - bis: - -   Zeitraum: 18.01.2022 - 20.01.2022
Min/Max/Avg-Anzeige ... ?
Zeige MMA aktuell
Zeige MMA Monat
Zeige MMA alles
Zeige --A aktuell
Zeige --A Monat
Zeige --A alles
Keine MMA-Anzeige
MMA:
Average (ber die Originaldaten)
MMA-Basis: 18.01.2022 - 20.01.2022
Quicknavigation für Darstellung... ?
Tage:      1T, 2T, 3T, 5T -1T -2T -3T -5T +1T +2T +3T +5T
Wochen: 1W, 2W, 3W -1W -2W -3W +1W +2W +3W
Monate: 1M, 3M, 6M -1M -3M -6M +1M +3M +6M
Jahre:    1J, 3J, 5J, 10J -1J -3J -5J -10J +1J +3J +5J +10J
Nutze für die Darstellung ... ?
Originaldaten oder Mittelwerte auf ...
Stundenbasis Tagesbasis Wochenbasis
Monatsbasis Jahresbasis      Datenbasis: Original-Daten
Darstellen als:
Statistik (Auto) Statistik J:M      Darstellung:
Zur Graphik,    zurück zur Übersicht aller Sensoren.
 
Tabellarische Datenbersicht: ?
 
Sensor: Nr:Datum:Temp:Abs-Feuchte:Windchill:Wind:
Aussen-T/F 1 18-01-2022 00:00:00 7.3 C 7.19 g/m*3 7.3 C 4.8 km/h
2 18-01-2022 00:05:00 7.3 C 7.19 g/m*3 7.3 C 0 km/h
3 18-01-2022 00:10:00 7.3 C 7.19 g/m*3 7.3 C 1.6 km/h
4 18-01-2022 00:15:00 7.2 C 7.14 g/m*3 6.13 C 6.4 km/h
5 18-01-2022 00:20:00 7.2 C 7.14 g/m*3 6.13 C 6.4 km/h
6 18-01-2022 00:25:00 7.2 C 7.14 g/m*3 7.2 C 4.8 km/h
7 18-01-2022 00:30:00 7.2 C 7.14 g/m*3 7.2 C 3.2 km/h
8 18-01-2022 00:35:00 7.2 C 7.14 g/m*3 7.2 C 4.8 km/h
9 18-01-2022 00:40:00 7.2 C 7.14 g/m*3 7.2 C 0 km/h
10 18-01-2022 00:45:00 7.2 C 7.14 g/m*3 7.2 C 4.8 km/h
11 18-01-2022 00:50:00 7.1 C 7.1 g/m*3 7.1 C 3.2 km/h
12 18-01-2022 00:55:00 7.1 C 7.1 g/m*3 7.1 C 4.8 km/h
13 18-01-2022 01:00:00 7.1 C 7.1 g/m*3 5.58 C 8.1 km/h
14 18-01-2022 01:05:00 7.1 C 7.1 g/m*3 5.58 C 8.1 km/h
15 18-01-2022 01:10:00 7 C 7.05 g/m*3 7 C 3.2 km/h
16 18-01-2022 01:15:00 6.9 C 7.01 g/m*3 6.9 C 3.2 km/h
17 18-01-2022 01:20:00 6.9 C 7.01 g/m*3 6.9 C 1.6 km/h
18 18-01-2022 01:25:00 6.9 C 7.01 g/m*3 6.9 C 3.2 km/h
19 18-01-2022 01:30:00 6.8 C 6.96 g/m*3 6.8 C 0 km/h
20 18-01-2022 01:35:00 6.8 C 6.96 g/m*3 4.87 C 9.7 km/h
21 18-01-2022 01:40:00 6.8 C 6.96 g/m*3 5.67 C 6.4 km/h
22 18-01-2022 01:45:00 6.8 C 6.96 g/m*3 6.8 C 1.6 km/h
23 18-01-2022 01:50:00 6.8 C 6.96 g/m*3 6.8 C 4.8 km/h
24 18-01-2022 01:55:00 6.8 C 6.96 g/m*3 5.67 C 6.4 km/h
25 18-01-2022 02:00:00 6.8 C 6.96 g/m*3 5.22 C 8.1 km/h
Sensor: Nr:Datum:Temp:Abs-Feuchte:Windchill:Wind:
Aussen-T/F 26 18-01-2022 02:05:00 6.8 C 6.96 g/m*3 6.8 C 3.2 km/h
27 18-01-2022 02:10:00 6.8 C 6.96 g/m*3 6.8 C 1.6 km/h
28 18-01-2022 02:15:00 6.8 C 6.96 g/m*3 6.8 C 4.8 km/h
29 18-01-2022 02:20:00 6.8 C 6.96 g/m*3 5.67 C 6.4 km/h
30 18-01-2022 02:25:00 6.8 C 6.96 g/m*3 6.8 C 0 km/h
31 18-01-2022 02:30:00 6.8 C 6.96 g/m*3 6.8 C 0 km/h
32 18-01-2022 02:35:00 6.7 C 6.91 g/m*3 6.7 C 0 km/h
33 18-01-2022 02:40:00 6.7 C 6.91 g/m*3 6.7 C 1.6 km/h
34 18-01-2022 02:45:00 6.7 C 6.91 g/m*3 6.7 C 4.8 km/h
35 18-01-2022 02:50:00 6.7 C 6.91 g/m*3 6.7 C 4.8 km/h
36 18-01-2022 02:55:00 6.7 C 6.91 g/m*3 6.7 C 1.6 km/h
37 18-01-2022 03:00:00 6.7 C 6.99 g/m*3 6.7 C 1.6 km/h
38 18-01-2022 03:05:00 6.6 C 6.95 g/m*3 6.6 C 0 km/h
39 18-01-2022 03:10:00 6.6 C 6.95 g/m*3 6.6 C 0 km/h
40 18-01-2022 03:15:00 6.6 C 6.95 g/m*3 6.6 C 0 km/h
41 18-01-2022 03:20:00 6.6 C 6.95 g/m*3 6.6 C 0 km/h
42 18-01-2022 03:25:00 6.6 C 6.95 g/m*3 5.44 C 6.4 km/h
43 18-01-2022 03:30:00 6.6 C 6.95 g/m*3 6.6 C 3.2 km/h
44 18-01-2022 03:35:00 6.6 C 6.95 g/m*3 6.6 C 1.6 km/h
45 18-01-2022 03:40:00 6.5 C 6.9 g/m*3 6.5 C 0 km/h
46 18-01-2022 03:45:00 6.5 C 6.9 g/m*3 6.5 C 0 km/h
47 18-01-2022 03:50:00 6.5 C 6.9 g/m*3 6.5 C 0 km/h
48 18-01-2022 03:55:00 6.4 C 6.85 g/m*3 6.4 C 1.6 km/h
49 18-01-2022 04:00:00 6.4 C 6.85 g/m*3 6.4 C 3.2 km/h
50 18-01-2022 04:05:00 6.4 C 6.93 g/m*3 6.4 C 0 km/h
Sensor: Nr:Datum:Temp:Abs-Feuchte:Windchill:Wind:
Aussen-T/F 51 18-01-2022 04:10:00 6.5 C 6.97 g/m*3 6.5 C 0 km/h
52 18-01-2022 04:15:00 6.4 C 6.85 g/m*3 6.4 C 0 km/h
53 18-01-2022 04:20:00 6.4 C 6.93 g/m*3 6.4 C 0 km/h
54 18-01-2022 04:25:00 6.4 C 6.85 g/m*3 6.4 C 0 km/h
55 18-01-2022 04:30:00 6.4 C 6.85 g/m*3 6.4 C 0 km/h
56 18-01-2022 04:35:00 6.3 C 6.88 g/m*3 6.3 C 0 km/h
57 18-01-2022 04:40:00 6.3 C 6.88 g/m*3 6.3 C 0 km/h
58 18-01-2022 04:45:00 6.3 C 6.88 g/m*3 6.3 C 0 km/h
59 18-01-2022 04:50:00 6.3 C 6.88 g/m*3 6.3 C 0 km/h
60 18-01-2022 04:55:00 6.2 C 6.84 g/m*3 6.2 C 0 km/h
61 18-01-2022 05:00:00 6.2 C 6.84 g/m*3 6.2 C 0 km/h
62 18-01-2022 05:05:00 6.2 C 6.84 g/m*3 6.2 C 0 km/h
63 18-01-2022 05:10:00 6.1 C 6.79 g/m*3 6.1 C 1.6 km/h
64 18-01-2022 05:15:00 6.1 C 6.79 g/m*3 6.1 C 3.2 km/h
65 18-01-2022 05:20:00 6.1 C 6.79 g/m*3 6.1 C 0 km/h
66 18-01-2022 05:25:00 6.1 C 6.79 g/m*3 6.1 C 0 km/h
67 18-01-2022 05:30:00 6.1 C 6.79 g/m*3 6.1 C 1.6 km/h
68 18-01-2022 05:35:00 6.1 C 6.79 g/m*3 6.1 C 0 km/h
69 18-01-2022 05:40:00 6.1 C 6.79 g/m*3 6.1 C 0 km/h
70 18-01-2022 05:45:00 6.1 C 6.87 g/m*3 6.1 C 0 km/h
71 18-01-2022 05:50:00 6.1 C 6.87 g/m*3 6.1 C 3.2 km/h
72 18-01-2022 05:55:00 6 C 6.82 g/m*3 6 C 0 km/h
73 18-01-2022 06:00:00 6 C 6.82 g/m*3 6 C 0 km/h
74 18-01-2022 06:05:00 6 C 6.82 g/m*3 6 C 0 km/h
75 18-01-2022 06:10:00 6 C 6.82 g/m*3 6 C 0 km/h
Sensor: Nr:Datum:Temp:Abs-Feuchte:Windchill:Wind:
Aussen-T/F 76 18-01-2022 06:15:00 6 C 6.82 g/m*3 6 C 0 km/h
77 18-01-2022 06:20:00 6 C 6.82 g/m*3 6 C 0 km/h
78 18-01-2022 06:25:00 5.9 C 6.78 g/m*3 5.9 C 4.8 km/h
79 18-01-2022 06:30:00 5.9 C 6.78 g/m*3 5.9 C 0 km/h
80 18-01-2022 06:35:00 5.9 C 6.78 g/m*3 5.9 C 0 km/h
81 18-01-2022 06:40:00 5.9 C 6.78 g/m*3 5.9 C 0 km/h
82 18-01-2022 06:45:00 5.8 C 6.73 g/m*3 5.8 C 0 km/h
83 18-01-2022 06:50:00 5.8 C 6.73 g/m*3 5.8 C 0 km/h
84 18-01-2022 06:55:00 5.8 C 6.73 g/m*3 5.8 C 0 km/h
85 18-01-2022 07:00:00 5.8 C 6.73 g/m*3 5.8 C 0 km/h
86 18-01-2022 07:05:00 5.8 C 6.73 g/m*3 5.8 C 0 km/h
87 18-01-2022 07:10:00 5.8 C 6.73 g/m*3 5.8 C 0 km/h
88 18-01-2022 07:15:00 5.8 C 6.73 g/m*3 5.8 C 1.6 km/h
89 18-01-2022 07:20:00 5.8 C 6.73 g/m*3 5.8 C 0 km/h
90 18-01-2022 07:25:00 5.8 C 6.73 g/m*3 5.8 C 1.6 km/h
91 18-01-2022 07:30:00 5.8 C 6.81 g/m*3 5.8 C 0 km/h
92 18-01-2022 07:35:00 5.9 C 6.85 g/m*3 5.9 C 0 km/h
93 18-01-2022 07:40:00 5.9 C 6.85 g/m*3 5.9 C 0 km/h
94 18-01-2022 07:45:00 5.9 C 6.85 g/m*3 5.9 C 0 km/h
95 18-01-2022 07:50:00 5.8 C 6.81 g/m*3 5.8 C 0 km/h
96 18-01-2022 07:55:00 5.8 C 6.73 g/m*3 5.8 C 0 km/h
97 18-01-2022 08:00:00 5.8 C 6.73 g/m*3 5.8 C 0 km/h
98 18-01-2022 08:05:00 5.8 C 6.73 g/m*3 5.8 C 0 km/h
99 18-01-2022 08:10:00 5.8 C 6.73 g/m*3 5.8 C 0 km/h
100 18-01-2022 08:15:00 5.8 C 6.73 g/m*3 5.8 C 0 km/h
Sensor: Nr:Datum:Temp:Abs-Feuchte:Windchill:Wind:
Aussen-T/F 101 18-01-2022 08:20:00 5.7 C 6.69 g/m*3 5.7 C 0 km/h
102 18-01-2022 08:25:00 5.7 C 6.69 g/m*3 5.7 C 0 km/h
103 18-01-2022 08:30:00 5.7 C 6.69 g/m*3 5.7 C 0 km/h
104 18-01-2022 08:35:00 5.7 C 6.69 g/m*3 5.7 C 0 km/h
105 18-01-2022 08:40:00 5.7 C 6.69 g/m*3 5.7 C 0 km/h
106 18-01-2022 08:45:00 5.7 C 6.69 g/m*3 5.7 C 0 km/h
107 18-01-2022 08:50:00 5.7 C 6.76 g/m*3 5.7 C 0 km/h
108 18-01-2022 08:55:00 5.7 C 6.76 g/m*3 5.7 C 0 km/h
109 18-01-2022 09:00:00 5.7 C 6.76 g/m*3 5.7 C 0 km/h
110 18-01-2022 09:05:00 5.7 C 6.76 g/m*3 5.7 C 0 km/h
111 18-01-2022 09:10:00 5.7 C 6.76 g/m*3 5.7 C 0 km/h
112 18-01-2022 09:15:00 5.7 C 6.76 g/m*3 5.7 C 0 km/h
113 18-01-2022 09:20:00 5.7 C 6.76 g/m*3 5.7 C 0 km/h
114 18-01-2022 09:25:00 5.7 C 6.76 g/m*3 5.7 C 0 km/h
115 18-01-2022 09:30:00 5.8 C 6.81 g/m*3 5.8 C 0 km/h
116 18-01-2022 09:35:00 5.8 C 6.81 g/m*3 5.8 C 0 km/h
117 18-01-2022 09:40:00 5.9 C 6.85 g/m*3 5.9 C 0 km/h
118 18-01-2022 09:45:00 5.9 C 6.85 g/m*3 5.9 C 0 km/h
119 18-01-2022 09:50:00 5.9 C 6.85 g/m*3 5.9 C 0 km/h
120 18-01-2022 09:55:00 6 C 6.9 g/m*3 6 C 0 km/h
121 18-01-2022 10:00:00 6.1 C 6.94 g/m*3 6.1 C 0 km/h
122 18-01-2022 10:05:00 6.1 C 6.94 g/m*3 6.1 C 0 km/h
123 18-01-2022 10:10:00 6.1 C 6.94 g/m*3 6.1 C 0 km/h
124 18-01-2022 10:15:00 6.1 C 6.94 g/m*3 6.1 C 0 km/h
125 18-01-2022 10:20:00 6.1 C 6.94 g/m*3 6.1 C 0 km/h
Sensor: Nr:Datum:Temp:Abs-Feuchte:Windchill:Wind:
Aussen-T/F 126 18-01-2022 10:25:00 6.2 C 6.99 g/m*3 6.2 C 0 km/h
127 18-01-2022 10:30:00 6.2 C 6.99 g/m*3 6.2 C 1.6 km/h
128 18-01-2022 10:35:00 6.2 C 6.99 g/m*3 6.2 C 0 km/h
129 18-01-2022 10:40:00 6.3 C 7.03 g/m*3 6.3 C 0 km/h
130 18-01-2022 10:45:00 6.3 C 7.03 g/m*3 6.3 C 0 km/h
131 18-01-2022 10:50:00 6.4 C 7.08 g/m*3 6.4 C 1.6 km/h
132 18-01-2022 10:55:00 6.4 C 7.08 g/m*3 6.4 C 0 km/h
133 18-01-2022 11:00:00 6.4 C 7.08 g/m*3 6.4 C 0 km/h
134 18-01-2022 11:05:00 6.5 C 7.12 g/m*3 6.5 C 0 km/h
135 18-01-2022 11:10:00 6.6 C 7.17 g/m*3 6.6 C 0 km/h
136 18-01-2022 11:15:00 6.6 C 7.17 g/m*3 6.6 C 0 km/h
137 18-01-2022 11:20:00 6.7 C 7.22 g/m*3 6.7 C 0 km/h
138 18-01-2022 11:25:00 6.7 C 7.22 g/m*3 6.7 C 0 km/h
139 18-01-2022 11:30:00 6.8 C 7.27 g/m*3 6.8 C 1.6 km/h
140 18-01-2022 11:35:00 6.9 C 7.31 g/m*3 6.9 C 0 km/h
141 18-01-2022 11:40:00 6.9 C 7.24 g/m*3 6.9 C 0 km/h
142 18-01-2022 11:45:00 6.9 C 7.24 g/m*3 6.9 C 3.2 km/h
143 18-01-2022 11:50:00 6.9 C 7.24 g/m*3 6.9 C 1.6 km/h
144 18-01-2022 11:55:00 7 C 7.28 g/m*3 7 C 0 km/h
145 18-01-2022 12:00:00 7 C 7.28 g/m*3 7 C 0 km/h
146 18-01-2022 12:05:00 7.1 C 7.33 g/m*3 7.1 C 0 km/h
147 18-01-2022 12:10:00 7.1 C 7.33 g/m*3 7.1 C 0 km/h
148 18-01-2022 12:15:00 7.1 C 7.33 g/m*3 7.1 C 0 km/h
149 18-01-2022 12:20:00 7.1 C 7.33 g/m*3 7.1 C 0 km/h
150 18-01-2022 12:25:00 7.1 C 7.25 g/m*3 7.1 C 0 km/h
Sensor: Nr:Datum:Temp:Abs-Feuchte:Windchill:Wind:
Aussen-T/F 151 18-01-2022 12:30:00 7.2 C 7.3 g/m*3 7.2 C 0 km/h
152 18-01-2022 12:35:00 7.2 C 7.3 g/m*3 7.2 C 0 km/h
153 18-01-2022 12:40:00 7.2 C 7.3 g/m*3 7.2 C 0 km/h
154 18-01-2022 12:45:00 7.2 C 7.3 g/m*3 7.2 C 0 km/h
155 18-01-2022 12:50:00 7.2 C 7.3 g/m*3 7.2 C 0 km/h
156 18-01-2022 12:55:00 7.3 C 7.35 g/m*3 7.3 C 0 km/h
157 18-01-2022 13:00:00 7.3 C 7.35 g/m*3 7.3 C 0 km/h
158 18-01-2022 13:05:00 7.3 C 7.35 g/m*3 7.3 C 0 km/h
159 18-01-2022 13:10:00 7.3 C 7.35 g/m*3 7.3 C 0 km/h
160 18-01-2022 13:15:00 7.3 C 7.35 g/m*3 7.3 C 0 km/h
161 18-01-2022 13:20:00 7.3 C 7.35 g/m*3 7.3 C 0 km/h
162 18-01-2022 13:25:00 7.3 C 7.35 g/m*3 7.3 C 0 km/h
163 18-01-2022 13:30:00 7.3 C 7.35 g/m*3 7.3 C 0 km/h
164 18-01-2022 13:35:00 7.3 C 7.35 g/m*3 7.3 C 0 km/h
165 18-01-2022 13:40:00 7.4 C 7.4 g/m*3 7.4 C 1.6 km/h
166 18-01-2022 13:45:00 7.4 C 7.4 g/m*3 7.4 C 0 km/h
167 18-01-2022 13:50:00 7.5 C 7.44 g/m*3 7.5 C 1.6 km/h
168 18-01-2022 13:55:00 7.6 C 7.41 g/m*3 7.6 C 0 km/h
169 18-01-2022 14:00:00 7.6 C 7.41 g/m*3 7.6 C 0 km/h
170 18-01-2022 14:05:00 7.6 C 7.41 g/m*3 7.6 C 0 km/h
171 18-01-2022 14:10:00 7.7 C 7.46 g/m*3 7.7 C 0 km/h
172 18-01-2022 14:15:00 7.7 C 7.46 g/m*3 7.7 C 0 km/h
173 18-01-2022 14:20:00 7.7 C 7.38 g/m*3 7.7 C 3.2 km/h
174 18-01-2022 14:25:00 7.7 C 7.38 g/m*3 7.7 C 0 km/h
175 18-01-2022 14:30:00 7.7 C 7.38 g/m*3 7.7 C 1.6 km/h
Sensor: Nr:Datum:Temp:Abs-Feuchte:Windchill:Wind:
Aussen-T/F 176 18-01-2022 14:35:00 7.6 C 7.33 g/m*3 7.6 C 0 km/h
177 18-01-2022 14:40:00 7.6 C 7.33 g/m*3 7.6 C 1.6 km/h
178 18-01-2022 14:45:00 7.6 C 7.33 g/m*3 7.6 C 0 km/h
179 18-01-2022 14:50:00 7.6 C 7.33 g/m*3 7.6 C 0 km/h
180 18-01-2022 14:55:00 7.7 C 7.38 g/m*3 7.7 C 0 km/h
181 18-01-2022 15:00:00 7.7 C 7.38 g/m*3 7.7 C 0 km/h
182 18-01-2022 15:05:00 7.7 C 7.38 g/m*3 7.7 C 1.6 km/h
183 18-01-2022 15:10:00 7.6 C 7.25 g/m*3 7.6 C 0 km/h
184 18-01-2022 15:15:00 7.6 C 7.25 g/m*3 7.6 C 0 km/h
185 18-01-2022 15:20:00 7.6 C 7.25 g/m*3 7.6 C 0 km/h
186 18-01-2022 15:25:00 7.6 C 7.25 g/m*3 7.6 C 0 km/h
187 18-01-2022 15:30:00 7.6 C 7.25 g/m*3 7.6 C 0 km/h
188 18-01-2022 15:35:00 7.6 C 7.25 g/m*3 7.6 C 0 km/h
189 18-01-2022 15:40:00 7.7 C 7.3 g/m*3 7.7 C 0 km/h
190 18-01-2022 15:45:00 7.6 C 7.25 g/m*3 7.6 C 0 km/h
191 18-01-2022 15:50:00 7.6 C 7.25 g/m*3 7.6 C 0 km/h
192 18-01-2022 15:55:00 7.7 C 7.3 g/m*3 7.7 C 0 km/h
193 18-01-2022 16:00:00 7.6 C 7.25 g/m*3 7.6 C 0 km/h
194 18-01-2022 16:05:00 7.6 C 7.25 g/m*3 7.6 C 0 km/h
195 18-01-2022 16:10:00 7.6 C 7.25 g/m*3 7.6 C 0 km/h
196 18-01-2022 16:15:00 7.6 C 7.25 g/m*3 7.6 C 0 km/h
197 18-01-2022 16:20:00 7.6 C 7.25 g/m*3 7.6 C 0 km/h
198 18-01-2022 16:25:00 7.6 C 7.25 g/m*3 7.6 C 0 km/h
199 18-01-2022 16:30:00 7.6 C 7.25 g/m*3 7.6 C 0 km/h
200 18-01-2022 16:35:00 7.6 C 7.25 g/m*3 7.6 C 0 km/h
Sensor: Nr:Datum:Temp:Abs-Feuchte:Windchill:Wind:
Aussen-T/F 201 18-01-2022 16:40:00 7.6 C 7.25 g/m*3 7.6 C 0 km/h
202 18-01-2022 16:45:00 7.5 C 7.2 g/m*3 7.5 C 0 km/h
203 18-01-2022 16:50:00 7.5 C 7.2 g/m*3 7.5 C 0 km/h
204 18-01-2022 16:55:00 7.4 C 7.16 g/m*3 7.4 C 0 km/h
205 18-01-2022 17:00:00 7.4 C 7.24 g/m*3 7.4 C 0 km/h
206 18-01-2022 17:05:00 7.3 C 7.19 g/m*3 7.3 C 0 km/h
207 18-01-2022 17:10:00 7.3 C 7.19 g/m*3 7.3 C 0 km/h
208 18-01-2022 17:15:00 7.2 C 7.14 g/m*3 7.2 C 0 km/h
209 18-01-2022 17:20:00 7.1 C 7.1 g/m*3 7.1 C 0 km/h
210 18-01-2022 17:25:00 7.1 C 7.1 g/m*3 7.1 C 0 km/h
211 18-01-2022 17:30:00 6.9 C 7.01 g/m*3 6.9 C 0 km/h
212 18-01-2022 17:35:00 6.9 C 7.08 g/m*3 6.9 C 0 km/h
213 18-01-2022 17:40:00 6.8 C 7.04 g/m*3 6.8 C 0 km/h
214 18-01-2022 17:45:00 6.8 C 7.04 g/m*3 6.8 C 0 km/h
215 18-01-2022 17:50:00 6.7 C 6.99 g/m*3 6.7 C 0 km/h
216 18-01-2022 17:55:00 6.7 C 6.99 g/m*3 6.7 C 0 km/h
217 18-01-2022 18:00:00 6.6 C 6.95 g/m*3 6.6 C 0 km/h
218 18-01-2022 18:05:00 6.6 C 6.95 g/m*3 6.6 C 0 km/h
219 18-01-2022 18:10:00 6.5 C 6.9 g/m*3 6.5 C 0 km/h
220 18-01-2022 18:15:00 6.4 C 6.85 g/m*3 6.4 C 0 km/h
221 18-01-2022 18:20:00 6.4 C 6.93 g/m*3 6.4 C 0 km/h
222 18-01-2022 18:25:00 6.4 C 6.93 g/m*3 6.4 C 0 km/h
223 18-01-2022 18:30:00 6.4 C 6.93 g/m*3 6.4 C 0 km/h
224 18-01-2022 18:35:00 6.3 C 6.88 g/m*3 6.3 C 0 km/h
225 18-01-2022 18:40:00 6.3 C 6.88 g/m*3 6.3 C 1.6 km/h
Sensor: Nr:Datum:Temp:Abs-Feuchte:Windchill:Wind:
Aussen-T/F 226 18-01-2022 18:45:00 6.3 C 6.88 g/m*3 6.3 C 0 km/h
227 18-01-2022 18:50:00 6.2 C 6.84 g/m*3 6.2 C 0 km/h
228 18-01-2022 18:55:00 6.2 C 6.84 g/m*3 6.2 C 0 km/h
229 18-01-2022 19:00:00 6.2 C 6.84 g/m*3 6.2 C 0 km/h
230 18-01-2022 19:05:00 6.1 C 6.79 g/m*3 6.1 C 0 km/h
231 18-01-2022 19:10:00 6.1 C 6.79 g/m*3 6.1 C 0 km/h
232 18-01-2022 19:15:00 6.1 C 6.79 g/m*3 6.1 C 0 km/h
233 18-01-2022 19:20:00 6.1 C 6.79 g/m*3 6.1 C 0 km/h
234 18-01-2022 19:25:00 6 C 6.75 g/m*3 6 C 0 km/h
235 18-01-2022 19:30:00 6 C 6.75 g/m*3 6 C 0 km/h
236 18-01-2022 19:35:00 5.9 C 6.71 g/m*3 5.9 C 0 km/h
237 18-01-2022 19:40:00 5.9 C 6.71 g/m*3 5.9 C 0 km/h
238 18-01-2022 19:45:00 5.9 C 6.71 g/m*3 5.9 C 0 km/h
239 18-01-2022 19:50:00 5.9 C 6.71 g/m*3 5.9 C 0 km/h
240 18-01-2022 19:55:00 5.9 C 6.71 g/m*3 5.9 C 0 km/h
241 18-01-2022 20:00:00 5.8 C 6.66 g/m*3 5.8 C 0 km/h
242 18-01-2022 20:05:00 5.8 C 6.66 g/m*3 5.8 C 0 km/h
243 18-01-2022 20:10:00 5.8 C 6.66 g/m*3 5.8 C 0 km/h
244 18-01-2022 20:15:00 5.8 C 6.66 g/m*3 5.8 C 0 km/h
245 18-01-2022 20:20:00 5.8 C 6.66 g/m*3 5.8 C 0 km/h
246 18-01-2022 20:25:00 5.8 C 6.66 g/m*3 5.8 C 0 km/h
247 18-01-2022 20:30:00 5.7 C 6.62 g/m*3 5.7 C 0 km/h
248 18-01-2022 20:35:00 5.7 C 6.62 g/m*3 5.7 C 0 km/h
249 18-01-2022 20:40:00 5.7 C 6.62 g/m*3 5.7 C 0 km/h
250 18-01-2022 20:45:00 5.7 C 6.62 g/m*3 5.7 C 0 km/h
Sensor: Nr:Datum:Temp:Abs-Feuchte:Windchill:Wind:
Aussen-T/F 251 18-01-2022 20:50:00 5.7 C 6.62 g/m*3 5.7 C 0 km/h
252 18-01-2022 20:55:00 5.7 C 6.62 g/m*3 5.7 C 0 km/h
253 18-01-2022 21:00:00 5.7 C 6.62 g/m*3 5.7 C 0 km/h
254 18-01-2022 21:05:00 5.7 C 6.62 g/m*3 5.7 C 0 km/h
255 18-01-2022 21:10:00 5.6 C 6.57 g/m*3 5.6 C 0 km/h
256 18-01-2022 21:15:00 5.7 C 6.62 g/m*3 5.7 C 0 km/h
257 18-01-2022 21:20:00 5.6 C 6.57 g/m*3 5.6 C 0 km/h
258 18-01-2022 21:25:00 5.6 C 6.57 g/m*3 5.6 C 0 km/h
259 18-01-2022 21:30:00 5.6 C 6.57 g/m*3 5.6 C 0 km/h
260 18-01-2022 21:35:00 5.6 C 6.57 g/m*3 5.6 C 0 km/h
261 18-01-2022 21:40:00 5.6 C 6.57 g/m*3 5.6 C 1.6 km/h
262 18-01-2022 21:45:00 5.6 C 6.57 g/m*3 5.6 C 4.8 km/h
263 18-01-2022 21:50:00 5.6 C 6.57 g/m*3 5.6 C 0 km/h
264 18-01-2022 21:55:00 5.6 C 6.5 g/m*3 5.6 C 4.8 km/h
265 18-01-2022 22:00:00 5.6 C 6.5 g/m*3 5.6 C 0 km/h
266 18-01-2022 22:05:00 5.5 C 6.46 g/m*3 5.5 C 0 km/h
267 18-01-2022 22:10:00 5.5 C 6.46 g/m*3 5.5 C 0 km/h
268 18-01-2022 22:15:00 5.4 C 6.42 g/m*3 5.4 C 0 km/h
269 18-01-2022 22:20:00 5.4 C 6.42 g/m*3 5.4 C 0 km/h
270 18-01-2022 22:25:00 5.4 C 6.35 g/m*3 5.4 C 0 km/h
271 18-01-2022 22:30:00 5.3 C 6.31 g/m*3 5.3 C 0 km/h
272 18-01-2022 22:35:00 5.2 C 6.27 g/m*3 5.2 C 1.6 km/h
273 18-01-2022 22:40:00 5.1 C 6.22 g/m*3 5.1 C 3.2 km/h
274 18-01-2022 22:45:00 5 C 6.18 g/m*3 5 C 0 km/h
275 18-01-2022 22:50:00 4.8 C 6.1 g/m*3 4.8 C 0 km/h
Sensor: Nr:Datum:Temp:Abs-Feuchte:Windchill:Wind:
Aussen-T/F 276 18-01-2022 22:55:00 4.7 C 6.06 g/m*3 4.7 C 0 km/h
277 18-01-2022 23:00:00 4.5 C 5.98 g/m*3 4.5 C 0 km/h
278 18-01-2022 23:05:00 4.4 C 5.94 g/m*3 4.4 C 0 km/h
279 18-01-2022 23:10:00 4.2 C 5.86 g/m*3 4.2 C 0 km/h
280 18-01-2022 23:15:00 4.1 C 5.82 g/m*3 4.1 C 3.2 km/h
281 18-01-2022 23:20:00 4 C 5.85 g/m*3 4 C 3.2 km/h
282 18-01-2022 23:25:00 3.9 C 5.81 g/m*3 3.9 C 1.6 km/h
283 18-01-2022 23:30:00 3.8 C 5.77 g/m*3 3.8 C 0 km/h
284 18-01-2022 23:35:00 3.8 C 5.77 g/m*3 3.8 C 0 km/h
285 18-01-2022 23:40:00 3.7 C 5.73 g/m*3 3.7 C 0 km/h
286 18-01-2022 23:45:00 3.7 C 5.8 g/m*3 3.7 C 0 km/h
287 18-01-2022 23:50:00 3.7 C 5.8 g/m*3 3.7 C 0 km/h
288 18-01-2022 23:55:00 3.7 C 5.8 g/m*3 3.7 C 3.2 km/h
289 19-01-2022 00:00:00 3.7 C 5.8 g/m*3 3.7 C 3.2 km/h
290 19-01-2022 00:05:00 3.7 C 5.8 g/m*3 3.7 C 0 km/h
291 19-01-2022 00:10:00 3.7 C 5.8 g/m*3 3.7 C 0 km/h
292 19-01-2022 00:15:00 3.6 C 5.76 g/m*3 3.6 C 0 km/h
293 19-01-2022 00:20:00 3.6 C 5.76 g/m*3 3.6 C 0 km/h
294 19-01-2022 00:25:00 3.6 C 5.76 g/m*3 3.6 C 1.6 km/h
295 19-01-2022 00:30:00 3.6 C 5.76 g/m*3 3.6 C 0 km/h
296 19-01-2022 00:35:00 3.6 C 5.76 g/m*3 3.6 C 1.6 km/h
297 19-01-2022 00:40:00 3.6 C 5.82 g/m*3 3.6 C 0 km/h
298 19-01-2022 00:45:00 3.6 C 5.82 g/m*3 3.6 C 3.2 km/h
299 19-01-2022 00:50:00 3.6 C 5.82 g/m*3 3.6 C 0 km/h
300 19-01-2022 00:55:00 3.7 C 5.86 g/m*3 3.7 C 1.6 km/h
Sensor: Nr:Datum:Temp:Abs-Feuchte:Windchill:Wind:
Aussen-T/F 301 19-01-2022 01:00:00 3.7 C 5.86 g/m*3 3.7 C 1.6 km/h
302 19-01-2022 01:05:00 3.8 C 5.9 g/m*3 3.8 C 1.6 km/h
303 19-01-2022 01:10:00 3.8 C 5.9 g/m*3 3.8 C 0 km/h
304 19-01-2022 01:15:00 3.9 C 5.94 g/m*3 3.9 C 0 km/h
305 19-01-2022 01:20:00 3.9 C 5.94 g/m*3 3.9 C 0 km/h
306 19-01-2022 01:25:00 4 C 5.98 g/m*3 4 C 0 km/h
307 19-01-2022 01:30:00 4.1 C 6.02 g/m*3 4.1 C 4.8 km/h
308 19-01-2022 01:35:00 4.1 C 6.02 g/m*3 4.1 C 4.8 km/h
309 19-01-2022 01:40:00 4.1 C 6.02 g/m*3 2.55 C 6.4 km/h
310 19-01-2022 01:45:00 4.2 C 6.06 g/m*3 4.2 C 0 km/h
311 19-01-2022 01:50:00 4.2 C 6.06 g/m*3 4.2 C 1.6 km/h
312 19-01-2022 01:55:00 4.3 C 6.03 g/m*3 4.3 C 3.2 km/h
313 19-01-2022 02:00:00 4.3 C 6.03 g/m*3 4.3 C 0 km/h
314 19-01-2022 02:05:00 4.4 C 6.07 g/m*3 4.4 C 0 km/h
315 19-01-2022 02:10:00 4.4 C 6.07 g/m*3 2.9 C 6.4 km/h
316 19-01-2022 02:15:00 4.4 C 6.01 g/m*3 4.4 C 1.6 km/h
317 19-01-2022 02:20:00 4.6 C 6.09 g/m*3 4.6 C 0 km/h
318 19-01-2022 02:25:00 4.6 C 6.09 g/m*3 4.6 C 0 km/h
319 19-01-2022 02:30:00 4.7 C 6.06 g/m*3 4.7 C 4.8 km/h
320 19-01-2022 02:35:00 4.7 C 6.06 g/m*3 3.25 C 6.4 km/h
321 19-01-2022 02:40:00 4.8 C 6.04 g/m*3 4.8 C 3.2 km/h
322 19-01-2022 02:45:00 4.8 C 5.97 g/m*3 4.8 C 1.6 km/h
323 19-01-2022 02:50:00 4.8 C 5.97 g/m*3 4.8 C 3.2 km/h
324 19-01-2022 02:55:00 4.9 C 6.01 g/m*3 4.9 C 0 km/h
325 19-01-2022 03:00:00 4.9 C 6.01 g/m*3 4.9 C 1.6 km/h
Sensor: Nr:Datum:Temp:Abs-Feuchte:Windchill:Wind:
Aussen-T/F 326 19-01-2022 03:05:00 4.9 C 6.01 g/m*3 4.9 C 4.8 km/h
327 19-01-2022 03:10:00 4.9 C 5.94 g/m*3 2.99 C 8.1 km/h
328 19-01-2022 03:15:00 4.9 C 5.94 g/m*3 4.9 C 4.8 km/h
329 19-01-2022 03:20:00 4.9 C 5.94 g/m*3 3.48 C 6.4 km/h
330 19-01-2022 03:25:00 4.9 C 5.94 g/m*3 4.9 C 4.8 km/h
331 19-01-2022 03:30:00 4.9 C 5.94 g/m*3 4.9 C 0 km/h
332 19-01-2022 03:35:00 4.9 C 6.01 g/m*3 4.9 C 0 km/h
333 19-01-2022 03:40:00 4.8 C 5.9 g/m*3 4.8 C 3.2 km/h
334 19-01-2022 03:45:00 4.8 C 5.9 g/m*3 4.8 C 1.6 km/h
335 19-01-2022 03:50:00 4.8 C 5.83 g/m*3 4.8 C 1.6 km/h
336 19-01-2022 03:55:00 4.8 C 5.83 g/m*3 4.8 C 3.2 km/h
337 19-01-2022 04:00:00 4.8 C 5.83 g/m*3 4.8 C 1.6 km/h
338 19-01-2022 04:05:00 4.8 C 5.83 g/m*3 4.8 C 1.6 km/h
339 19-01-2022 04:10:00 4.8 C 5.83 g/m*3 4.8 C 1.6 km/h
340 19-01-2022 04:15:00 4.8 C 5.83 g/m*3 4.8 C 3.2 km/h
341 19-01-2022 04:20:00 4.8 C 5.77 g/m*3 3.36 C 6.4 km/h
342 19-01-2022 04:25:00 4.8 C 5.83 g/m*3 4.8 C 3.2 km/h
343 19-01-2022 04:30:00 4.8 C 5.83 g/m*3 4.8 C 0 km/h
344 19-01-2022 04:35:00 4.8 C 5.83 g/m*3 4.8 C 0 km/h
345 19-01-2022 04:40:00 4.8 C 5.83 g/m*3 4.8 C 0 km/h
346 19-01-2022 04:45:00 4.7 C 5.8 g/m*3 4.7 C 3.2 km/h
347 19-01-2022 04:50:00 4.7 C 5.8 g/m*3 4.7 C 0 km/h
348 19-01-2022 04:55:00 4.7 C 5.8 g/m*3 4.7 C 0 km/h
349 19-01-2022 05:00:00 4.7 C 5.86 g/m*3 4.7 C 0 km/h
350 19-01-2022 05:05:00 4.7 C 5.8 g/m*3 3.25 C 6.4 km/h
Sensor: Nr:Datum:Temp:Abs-Feuchte:Windchill:Wind:
Aussen-T/F 351 19-01-2022 05:10:00 4.6 C 5.82 g/m*3 4.6 C 1.6 km/h
352 19-01-2022 05:15:00 4.6 C 5.82 g/m*3 4.6 C 3.2 km/h
353 19-01-2022 05:20:00 4.6 C 5.82 g/m*3 4.6 C 0 km/h
354 19-01-2022 05:25:00 4.6 C 5.82 g/m*3 4.6 C 4.8 km/h
355 19-01-2022 05:30:00 4.5 C 5.78 g/m*3 4.5 C 0 km/h
356 19-01-2022 05:35:00 4.3 C 5.64 g/m*3 4.3 C 1.6 km/h
357 19-01-2022 05:40:00 4.1 C 5.57 g/m*3 4.1 C 3.2 km/h
358 19-01-2022 05:45:00 3.9 C 5.49 g/m*3 3.9 C 1.6 km/h
359 19-01-2022 05:50:00 3.7 C 5.48 g/m*3 3.7 C 3.2 km/h
360 19-01-2022 05:55:00 3.6 C 5.51 g/m*3 3.6 C 3.2 km/h
361 19-01-2022 06:00:00 3.5 C 5.47 g/m*3 3.5 C 3.2 km/h
362 19-01-2022 06:05:00 3.4 C 5.5 g/m*3 3.4 C 0 km/h
363 19-01-2022 06:10:00 3.4 C 5.5 g/m*3 3.4 C 0 km/h
364 19-01-2022 06:15:00 3.3 C 5.46 g/m*3 3.3 C 3.2 km/h
365 19-01-2022 06:20:00 3.4 C 5.56 g/m*3 3.4 C 1.6 km/h
366 19-01-2022 06:25:00 3.4 C 5.56 g/m*3 3.4 C 0 km/h
367 19-01-2022 06:30:00 3.4 C 5.56 g/m*3 3.4 C 0 km/h
368 19-01-2022 06:35:00 3.5 C 5.6 g/m*3 3.5 C 3.2 km/h
369 19-01-2022 06:40:00 3.5 C 5.6 g/m*3 3.5 C 0 km/h
370 19-01-2022 06:45:00 3.6 C 5.63 g/m*3 3.6 C 4.8 km/h
371 19-01-2022 06:50:00 3.6 C 5.63 g/m*3 3.6 C 3.2 km/h
372 19-01-2022 06:55:00 3.6 C 5.63 g/m*3 3.6 C 0 km/h
373 19-01-2022 07:00:00 3.6 C 5.63 g/m*3 3.6 C 0 km/h
374 19-01-2022 07:05:00 3.6 C 5.63 g/m*3 3.6 C 1.6 km/h
375 19-01-2022 07:10:00 3.6 C 5.63 g/m*3 3.6 C 0 km/h
Sensor: Nr:Datum:Temp:Abs-Feuchte:Windchill:Wind:
Aussen-T/F 376 19-01-2022 07:15:00 3.6 C 5.63 g/m*3 3.6 C 1.6 km/h
377 19-01-2022 07:20:00 3.6 C 5.63 g/m*3 3.6 C 0 km/h
378 19-01-2022 07:25:00 3.6 C 5.63 g/m*3 3.6 C 3.2 km/h
379 19-01-2022 07:30:00 3.6 C 5.63 g/m*3 3.6 C 0 km/h
380 19-01-2022 07:35:00 3.6 C 5.63 g/m*3 3.6 C 0 km/h
381 19-01-2022 07:40:00 3.6 C 5.63 g/m*3 3.6 C 0 km/h
382 19-01-2022 07:45:00 3.5 C 5.6 g/m*3 3.5 C 0 km/h
383 19-01-2022 07:50:00 3.4 C 5.56 g/m*3 3.4 C 0 km/h
384 19-01-2022 07:55:00 3.3 C 5.46 g/m*3 3.3 C 0 km/h
385 19-01-2022 08:00:00 3.2 C 5.42 g/m*3 3.2 C 0 km/h
386 19-01-2022 08:05:00 3 C 5.35 g/m*3 3 C 3.2 km/h
387 19-01-2022 08:10:00 2.9 C 5.32 g/m*3 2.9 C 1.6 km/h
388 19-01-2022 08:15:00 2.9 C 5.37 g/m*3 2.9 C 0 km/h
389 19-01-2022 08:20:00 2.9 C 5.37 g/m*3 2.9 C 0 km/h
390 19-01-2022 08:25:00 2.9 C 5.43 g/m*3 2.9 C 0 km/h
391 19-01-2022 08:30:00 2.9 C 5.43 g/m*3 2.9 C 0 km/h
392 19-01-2022 08:35:00 2.9 C 5.43 g/m*3 2.9 C 0 km/h
393 19-01-2022 08:40:00 3 C 5.47 g/m*3 3 C 0 km/h
394 19-01-2022 08:45:00 3.1 C 5.51 g/m*3 3.1 C 0 km/h
395 19-01-2022 08:50:00 3.1 C 5.51 g/m*3 3.1 C 0 km/h
396 19-01-2022 08:55:00 3.1 C 5.51 g/m*3 3.1 C 0 km/h
397 19-01-2022 09:00:00 3.1 C 5.51 g/m*3 3.1 C 0 km/h
398 19-01-2022 09:05:00 3 C 5.47 g/m*3 3 C 0 km/h
399 19-01-2022 09:10:00 2.9 C 5.43 g/m*3 2.9 C 0 km/h
400 19-01-2022 09:15:00 2.8 C 5.4 g/m*3 2.8 C 0 km/h
Sensor: Nr:Datum:Temp:Abs-Feuchte:Windchill:Wind:
Aussen-T/F 401 19-01-2022 09:20:00 2.7 C 5.36 g/m*3 2.7 C 0 km/h
402 19-01-2022 09:25:00 2.6 C 5.32 g/m*3 2.6 C 0 km/h
403 19-01-2022 09:30:00 2.6 C 5.32 g/m*3 2.6 C 0 km/h
404 19-01-2022 09:35:00 2.4 C 5.25 g/m*3 2.4 C 0 km/h
405 19-01-2022 09:40:00 2.4 C 5.25 g/m*3 2.4 C 0 km/h
406 19-01-2022 09:45:00 2.3 C 5.22 g/m*3 2.3 C 0 km/h
407 19-01-2022 09:50:00 2.2 C 5.18 g/m*3 2.2 C 0 km/h
408 19-01-2022 09:55:00 2.2 C 5.18 g/m*3 2.2 C 0 km/h
409 19-01-2022 10:00:00 2.1 C 5.15 g/m*3 2.1 C 0 km/h
410 19-01-2022 10:05:00 2.1 C 5.15 g/m*3 2.1 C 0 km/h
411 19-01-2022 10:10:00 2.1 C 5.2 g/m*3 2.1 C 0 km/h
412 19-01-2022 10:15:00 2.2 C 5.24 g/m*3 2.2 C 3.2 km/h
413 19-01-2022 10:20:00 2.3 C 5.27 g/m*3 2.3 C 0 km/h
414 19-01-2022 10:25:00 2.4 C 5.31 g/m*3 2.4 C 0 km/h
415 19-01-2022 10:30:00 2.7 C 5.48 g/m*3 2.7 C 0 km/h
416 19-01-2022 10:35:00 2.8 C 5.51 g/m*3 2.8 C 1.6 km/h
417 19-01-2022 10:40:00 3 C 5.59 g/m*3 3 C 3.2 km/h
418 19-01-2022 10:45:00 3.2 C 5.6 g/m*3 3.2 C 1.6 km/h
419 19-01-2022 10:50:00 3.3 C 5.58 g/m*3 3.3 C 1.6 km/h
420 19-01-2022 10:55:00 3.5 C 5.66 g/m*3 3.5 C 4.8 km/h
421 19-01-2022 11:00:00 3.7 C 5.67 g/m*3 3.7 C 3.2 km/h
422 19-01-2022 11:05:00 3.9 C 5.68 g/m*3 3.9 C 4.8 km/h
423 19-01-2022 11:10:00 4.1 C 5.7 g/m*3 4.1 C 3.2 km/h
424 19-01-2022 11:15:00 4.2 C 5.67 g/m*3 2.17 C 8.1 km/h
425 19-01-2022 11:20:00 4.3 C 5.64 g/m*3 2.29 C 8.1 km/h
Sensor: Nr:Datum:Temp:Abs-Feuchte:Windchill:Wind:
Aussen-T/F 426 19-01-2022 11:25:00 4.3 C 5.64 g/m*3 2.29 C 8.1 km/h
427 19-01-2022 11:30:00 4.4 C 5.62 g/m*3 2.4 C 8.1 km/h
428 19-01-2022 11:35:00 4.4 C 5.62 g/m*3 2.4 C 8.1 km/h
429 19-01-2022 11:40:00 4.3 C 5.51 g/m*3 1.55 C 11.3 km/h
430 19-01-2022 11:45:00 4.3 C 5.58 g/m*3 1.89 C 9.7 km/h
431 19-01-2022 11:50:00 4.3 C 5.58 g/m*3 0.97 C 14.5 km/h
432 19-01-2022 11:55:00 4.3 C 5.58 g/m*3 1.89 C 9.7 km/h
433 19-01-2022 12:00:00 4.3 C 5.58 g/m*3 1.89 C 9.7 km/h
434 19-01-2022 12:05:00 4.3 C 5.58 g/m*3 1.24 C 12.9 km/h
435 19-01-2022 12:10:00 4.3 C 5.58 g/m*3 2.29 C 8.1 km/h
436 19-01-2022 12:15:00 4.2 C 5.54 g/m*3 2.17 C 8.1 km/h
437 19-01-2022 12:20:00 4.2 C 5.61 g/m*3 1.77 C 9.7 km/h
438 19-01-2022 12:25:00 4.2 C 5.61 g/m*3 1.12 C 12.9 km/h
439 19-01-2022 12:30:00 4.2 C 5.61 g/m*3 1.77 C 9.7 km/h
440 19-01-2022 12:35:00 4.2 C 5.61 g/m*3 2.17 C 8.1 km/h
441 19-01-2022 12:40:00 4.1 C 5.57 g/m*3 1 C 12.9 km/h
442 19-01-2022 12:45:00 4.1 C 5.63 g/m*3 2.55 C 6.4 km/h
443 19-01-2022 12:50:00 4.1 C 5.63 g/m*3 2.05 C 8.1 km/h
444 19-01-2022 12:55:00 4.1 C 5.63 g/m*3 1.31 C 11.3 km/h
445 19-01-2022 13:00:00 4 C 5.59 g/m*3 1.93 C 8.1 km/h
446 19-01-2022 13:05:00 3.9 C 5.56 g/m*3 1.82 C 8.1 km/h
447 19-01-2022 13:10:00 3.9 C 5.62 g/m*3 1.06 C 11.3 km/h
448 19-01-2022 13:15:00 3.9 C 5.56 g/m*3 1.41 C 9.7 km/h
449 19-01-2022 13:20:00 3.8 C 5.52 g/m*3 0.63 C 12.9 km/h
450 19-01-2022 13:25:00 3.8 C 5.52 g/m*3 0.94 C 11.3 km/h
Sensor: Nr:Datum:Temp:Abs-Feuchte:Windchill:Wind:
Aussen-T/F 451 19-01-2022 13:30:00 3.7 C 5.48 g/m*3 0.23 C 14.5 km/h
452 19-01-2022 13:35:00 3.7 C 5.48 g/m*3 0.51 C 12.9 km/h
453 19-01-2022 13:40:00 3.6 C 5.51 g/m*3 1.06 C 9.7 km/h
454 19-01-2022 13:45:00 3.6 C 5.51 g/m*3 0.7 C 11.3 km/h
455 19-01-2022 13:50:00 3.6 C 5.51 g/m*3 -0.15 C 16.1 km/h
456 19-01-2022 13:55:00 3.6 C 5.51 g/m*3 -0.61 C 19.3 km/h
457 19-01-2022 14:00:00 3.5 C 5.53 g/m*3 -0.28 C 16.1 km/h
458 19-01-2022 14:05:00 3.5 C 5.53 g/m*3 0.58 C 11.3 km/h
459 19-01-2022 14:10:00 3.4 C 5.5 g/m*3 0.82 C 9.7 km/h
460 19-01-2022 14:15:00 3.4 C 5.5 g/m*3 0.82 C 9.7 km/h
461 19-01-2022 14:20:00 3.4 C 5.5 g/m*3 0.82 C 9.7 km/h
462 19-01-2022 14:25:00 3.4 C 5.5 g/m*3 0.14 C 12.9 km/h
463 19-01-2022 14:30:00 3.4 C 5.5 g/m*3 1.75 C 6.4 km/h
464 19-01-2022 14:35:00 3.4 C 5.5 g/m*3 1.23 C 8.1 km/h
465 19-01-2022 14:40:00 3.4 C 5.5 g/m*3 0.46 C 11.3 km/h
466 19-01-2022 14:45:00 3.4 C 5.5 g/m*3 0.14 C 12.9 km/h
467 19-01-2022 14:50:00 3.4 C 5.5 g/m*3 0.46 C 11.3 km/h
468 19-01-2022 14:55:00 3.4 C 5.5 g/m*3 1.23 C 8.1 km/h
469 19-01-2022 15:00:00 3.4 C 5.5 g/m*3 0.46 C 11.3 km/h
470 19-01-2022 15:05:00 3.4 C 5.5 g/m*3 0.46 C 11.3 km/h
471 19-01-2022 15:10:00 3.5 C 5.53 g/m*3 0.94 C 9.7 km/h
472 19-01-2022 15:15:00 3.5 C 5.53 g/m*3 0.58 C 11.3 km/h
473 19-01-2022 15:20:00 3.6 C 5.57 g/m*3 1.06 C 9.7 km/h
474 19-01-2022 15:25:00 3.6 C 5.57 g/m*3 1.06 C 9.7 km/h
475 19-01-2022 15:30:00 3.5 C 5.6 g/m*3 0.94 C 9.7 km/h
Sensor: Nr:Datum:Temp:Abs-Feuchte:Windchill:Wind:
Aussen-T/F 476 19-01-2022 15:35:00 3.5 C 5.6 g/m*3 0.58 C 11.3 km/h
477 19-01-2022 15:40:00 3.5 C 5.6 g/m*3 0.58 C 11.3 km/h
478 19-01-2022 15:45:00 3.4 C 5.56 g/m*3 0.82 C 9.7 km/h
479 19-01-2022 15:50:00 3.4 C 5.56 g/m*3 0.82 C 9.7 km/h
480 19-01-2022 15:55:00 3.4 C 5.62 g/m*3 1.23 C 8.1 km/h
481 19-01-2022 16:00:00 3.4 C 5.62 g/m*3 1.75 C 6.4 km/h
482 19-01-2022 16:05:00 3.4 C 5.62 g/m*3 1.75 C 6.4 km/h
483 19-01-2022 16:10:00 3.3 C 5.58 g/m*3 1.11 C 8.1 km/h
484 19-01-2022 16:15:00 3.4 C 5.62 g/m*3 0.82 C 9.7 km/h
485 19-01-2022 16:20:00 3.4 C 5.62 g/m*3 0.46 C 11.3 km/h
486 19-01-2022 16:25:00 3.3 C 5.58 g/m*3 0.7 C 9.7 km/h
487 19-01-2022 16:30:00 3.4 C 5.62 g/m*3 0.82 C 9.7 km/h
488 19-01-2022 16:35:00 3.3 C 5.58 g/m*3 1.11 C 8.1 km/h
489 19-01-2022 16:40:00 3.4 C 5.62 g/m*3 1.75 C 6.4 km/h
490 19-01-2022 16:45:00 3.4 C 5.62 g/m*3 -0.14 C 14.5 km/h
491 19-01-2022 16:50:00 3.3 C 5.58 g/m*3 1.11 C 8.1 km/h
492 19-01-2022 16:55:00 3.3 C 5.58 g/m*3 0.34 C 11.3 km/h
493 19-01-2022 17:00:00 3.4 C 5.62 g/m*3 1.23 C 8.1 km/h
494 19-01-2022 17:05:00 3.4 C 5.62 g/m*3 0.14 C 12.9 km/h
495 19-01-2022 17:10:00 3.4 C 5.62 g/m*3 1.75 C 6.4 km/h
496 19-01-2022 17:15:00 3.4 C 5.62 g/m*3 -0.64 C 17.7 km/h
497 19-01-2022 17:20:00 3.4 C 5.62 g/m*3 0.46 C 11.3 km/h
498 19-01-2022 17:25:00 3.5 C 5.6 g/m*3 0.27 C 12.9 km/h
499 19-01-2022 17:30:00 3.6 C 5.63 g/m*3 1.06 C 9.7 km/h
500 19-01-2022 17:35:00 3.6 C 5.63 g/m*3 0.11 C 14.5 km/h
Sensor: Nr:Datum:Temp:Abs-Feuchte:Windchill:Wind:
Aussen-T/F 501 19-01-2022 17:40:00 3.6 C 5.63 g/m*3 0.39 C 12.9 km/h
502 19-01-2022 17:45:00 3.7 C 5.67 g/m*3 0.82 C 11.3 km/h
503 19-01-2022 17:50:00 3.7 C 5.67 g/m*3 0.23 C 14.5 km/h
504 19-01-2022 17:55:00 3.7 C 5.67 g/m*3 0.23 C 14.5 km/h
505 19-01-2022 18:00:00 3.7 C 5.61 g/m*3 0.23 C 14.5 km/h
506 19-01-2022 18:05:00 3.8 C 5.65 g/m*3 0.94 C 11.3 km/h
507 19-01-2022 18:10:00 3.8 C 5.65 g/m*3 0.35 C 14.5 km/h
508 19-01-2022 18:15:00 3.8 C 5.65 g/m*3 0.94 C 11.3 km/h
509 19-01-2022 18:20:00 3.8 C 5.65 g/m*3 0.35 C 14.5 km/h
510 19-01-2022 18:25:00 3.8 C 5.65 g/m*3 0.1 C 16.1 km/h
511 19-01-2022 18:30:00 3.8 C 5.65 g/m*3 -0.36 C 19.3 km/h
512 19-01-2022 18:35:00 3.8 C 5.65 g/m*3 0.1 C 16.1 km/h
513 19-01-2022 18:40:00 3.8 C 5.71 g/m*3 -0.36 C 19.3 km/h
514 19-01-2022 18:45:00 3.8 C 5.71 g/m*3 -0.36 C 19.3 km/h
515 19-01-2022 18:50:00 3.8 C 5.71 g/m*3 0.63 C 12.9 km/h
516 19-01-2022 18:55:00 3.7 C 5.73 g/m*3 -0.26 C 17.7 km/h
517 19-01-2022 19:00:00 3.7 C 5.73 g/m*3 -0.03 C 16.1 km/h
518 19-01-2022 19:05:00 3.7 C 5.73 g/m*3 -0.48 C 19.3 km/h
519 19-01-2022 19:10:00 3.6 C 5.69 g/m*3 -0.15 C 16.1 km/h
520 19-01-2022 19:15:00 3.6 C 5.76 g/m*3 0.11 C 14.5 km/h
521 19-01-2022 19:20:00 3.6 C 5.76 g/m*3 -0.15 C 16.1 km/h
522 19-01-2022 19:25:00 3.6 C 5.76 g/m*3 -1.01 C 22.5 km/h
523 19-01-2022 19:30:00 3.7 C 5.8 g/m*3 -1.06 C 24.1 km/h
524 19-01-2022 19:35:00 3.7 C 5.8 g/m*3 -0.48 C 19.3 km/h
525 19-01-2022 19:40:00 3.7 C 5.8 g/m*3 -0.48 C 19.3 km/h
Sensor: Nr:Datum:Temp:Abs-Feuchte:Windchill:Wind:
Aussen-T/F 526 19-01-2022 19:45:00 3.7 C 5.73 g/m*3 -0.69 C 20.9 km/h
527 19-01-2022 19:50:00 3.8 C 5.77 g/m*3 -0.14 C 17.7 km/h
528 19-01-2022 19:55:00 3.8 C 5.77 g/m*3 -0.56 C 20.9 km/h
529 19-01-2022 20:00:00 3.8 C 5.77 g/m*3 0.63 C 12.9 km/h
530 19-01-2022 20:05:00 3.8 C 5.77 g/m*3 -0.56 C 20.9 km/h
531 19-01-2022 20:10:00 3.9 C 5.81 g/m*3 -0.62 C 22.5 km/h
532 19-01-2022 20:15:00 3.9 C 5.81 g/m*3 -0.8 C 24.1 km/h
533 19-01-2022 20:20:00 3.9 C 5.81 g/m*3 -0.62 C 22.5 km/h
534 19-01-2022 20:25:00 3.9 C 5.81 g/m*3 -0.01 C 17.7 km/h
535 19-01-2022 20:30:00 3.9 C 5.81 g/m*3 -0.23 C 19.3 km/h
536 19-01-2022 20:35:00 4 C 5.85 g/m*3 -0.67 C 24.1 km/h
537 19-01-2022 20:40:00 4 C 5.85 g/m*3 -0.84 C 25.7 km/h
538 19-01-2022 20:45:00 4 C 5.85 g/m*3 -0.11 C 19.3 km/h
539 19-01-2022 20:50:00 4.1 C 5.89 g/m*3 -0.37 C 22.5 km/h
540 19-01-2022 20:55:00 4.1 C 5.82 g/m*3 -0.88 C 27.4 km/h
541 19-01-2022 21:00:00 4.1 C 5.82 g/m*3 -0.18 C 20.9 km/h
542 19-01-2022 21:05:00 4.1 C 5.82 g/m*3 0.24 C 17.7 km/h
543 19-01-2022 21:10:00 4.2 C 5.86 g/m*3 -0.05 C 20.9 km/h
544 19-01-2022 21:15:00 4.2 C 5.86 g/m*3 0.59 C 16.1 km/h
545 19-01-2022 21:20:00 4.1 C 5.89 g/m*3 -0.18 C 20.9 km/h
546 19-01-2022 21:25:00 4.1 C 5.89 g/m*3 0.47 C 16.1 km/h
547 19-01-2022 21:30:00 4.1 C 5.95 g/m*3 0.72 C 14.5 km/h
548 19-01-2022 21:35:00 4 C 5.91 g/m*3 0.11 C 17.7 km/h
549 19-01-2022 21:40:00 4 C 5.91 g/m*3 0.6 C 14.5 km/h
550 19-01-2022 21:45:00 4 C 5.91 g/m*3 0.11 C 17.7 km/h
Sensor: Nr:Datum:Temp:Abs-Feuchte:Windchill:Wind:
Aussen-T/F 551 19-01-2022 21:50:00 4 C 5.91 g/m*3 -0.67 C 24.1 km/h
552 19-01-2022 21:55:00 4 C 5.91 g/m*3 0.6 C 14.5 km/h
553 19-01-2022 22:00:00 4 C 5.98 g/m*3 -0.31 C 20.9 km/h
554 19-01-2022 22:05:00 4 C 5.98 g/m*3 0.11 C 17.7 km/h
555 19-01-2022 22:10:00 4 C 5.98 g/m*3 -0.31 C 20.9 km/h
556 19-01-2022 22:15:00 4 C 5.98 g/m*3 0.34 C 16.1 km/h
557 19-01-2022 22:20:00 4 C 5.98 g/m*3 -0.11 C 19.3 km/h
558 19-01-2022 22:25:00 4 C 5.98 g/m*3 0.34 C 16.1 km/h
559 19-01-2022 22:30:00 4 C 5.98 g/m*3 0.88 C 12.9 km/h
560 19-01-2022 22:35:00 4 C 5.98 g/m*3 0.88 C 12.9 km/h
561 19-01-2022 22:40:00 4 C 5.98 g/m*3 0.34 C 16.1 km/h
562 19-01-2022 22:45:00 4.1 C 6.02 g/m*3 0.72 C 14.5 km/h
563 19-01-2022 22:50:00 4.1 C 6.02 g/m*3 1.31 C 11.3 km/h
564 19-01-2022 22:55:00 4.1 C 6.02 g/m*3 0.47 C 16.1 km/h
565 19-01-2022 23:00:00 4.1 C 6.02 g/m*3 0.72 C 14.5 km/h
566 19-01-2022 23:05:00 4.1 C 6.02 g/m*3 1 C 12.9 km/h
567 19-01-2022 23:10:00 4.2 C 6.06 g/m*3 1.12 C 12.9 km/h
568 19-01-2022 23:15:00 4.2 C 6.06 g/m*3 0.59 C 16.1 km/h
569 19-01-2022 23:20:00 4.2 C 6.06 g/m*3 1.12 C 12.9 km/h
570 19-01-2022 23:25:00 4.2 C 6.06 g/m*3 1.43 C 11.3 km/h
571 19-01-2022 23:30:00 4.2 C 6.06 g/m*3 1.12 C 12.9 km/h
572 19-01-2022 23:35:00 4.3 C 6.1 g/m*3 1.55 C 11.3 km/h
573 19-01-2022 23:40:00 4.3 C 6.1 g/m*3 1.55 C 11.3 km/h
574 19-01-2022 23:45:00 4.3 C 6.1 g/m*3 1.55 C 11.3 km/h
575 19-01-2022 23:50:00 4.3 C 6.1 g/m*3 0.49 C 17.7 km/h
Sensor: Nr:Datum:Temp:Abs-Feuchte:Windchill:Wind:
Aussen-T/F 576 19-01-2022 23:55:00 4.3 C 6.1 g/m*3 1.24 C 12.9 km/h
577 20-01-2022 00:00:00 4.4 C 6.14 g/m*3 1.67 C 11.3 km/h
578 20-01-2022 00:05:00 4.4 C 6.14 g/m*3 1.36 C 12.9 km/h
579 20-01-2022 00:10:00 4.4 C 6.14 g/m*3 2.01 C 9.7 km/h
580 20-01-2022 00:15:00 4.4 C 6.14 g/m*3 2.9 C 6.4 km/h
581 20-01-2022 00:20:00 4.4 C 6.14 g/m*3 2.4 C 8.1 km/h
582 20-01-2022 00:25:00 4.4 C 6.14 g/m*3 1.67 C 11.3 km/h
583 20-01-2022 00:30:00 4.3 C 6.1 g/m*3 1.89 C 9.7 km/h
584 20-01-2022 00:35:00 4.3 C 6.1 g/m*3 1.55 C 11.3 km/h
585 20-01-2022 00:40:00 4.4 C 6.14 g/m*3 2.01 C 9.7 km/h
586 20-01-2022 00:45:00 4.4 C 6.14 g/m*3 2.01 C 9.7 km/h
587 20-01-2022 00:50:00 4.4 C 6.2 g/m*3 4.4 C 4.8 km/h
588 20-01-2022 00:55:00 4.5 C 6.24 g/m*3 2.13 C 9.7 km/h
589 20-01-2022 01:00:00 4.5 C 6.24 g/m*3 2.52 C 8.1 km/h
590 20-01-2022 01:05:00 4.5 C 6.24 g/m*3 4.5 C 4.8 km/h
591 20-01-2022 01:10:00 4.4 C 6.2 g/m*3 4.4 C 1.6 km/h
592 20-01-2022 01:15:00 4.4 C 6.14 g/m*3 4.4 C 1.6 km/h
593 20-01-2022 01:20:00 4.4 C 6.2 g/m*3 4.4 C 3.2 km/h
594 20-01-2022 01:25:00 4.4 C 6.2 g/m*3 4.4 C 3.2 km/h
595 20-01-2022 01:30:00 4.3 C 6.16 g/m*3 4.3 C 4.8 km/h
596 20-01-2022 01:35:00 4.3 C 6.16 g/m*3 2.78 C 6.4 km/h
597 20-01-2022 01:40:00 4.4 C 6.2 g/m*3 2.9 C 6.4 km/h
598 20-01-2022 01:45:00 4.4 C 6.2 g/m*3 4.4 C 4.8 km/h
599 20-01-2022 01:50:00 4.4 C 6.2 g/m*3 4.4 C 4.8 km/h
600 20-01-2022 01:55:00 4.4 C 6.2 g/m*3 2.9 C 6.4 km/h
Sensor: Nr:Datum:Temp:Abs-Feuchte:Windchill:Wind:
Aussen-T/F 601 20-01-2022 02:00:00 4.4 C 6.2 g/m*3 2.9 C 6.4 km/h
602 20-01-2022 02:05:00 4.4 C 6.2 g/m*3 2.4 C 8.1 km/h
603 20-01-2022 02:10:00 4.4 C 6.2 g/m*3 2.9 C 6.4 km/h
604 20-01-2022 02:15:00 4.4 C 6.2 g/m*3 2.01 C 9.7 km/h
605 20-01-2022 02:20:00 4.4 C 6.2 g/m*3 2.4 C 8.1 km/h
606 20-01-2022 02:25:00 4.3 C 6.16 g/m*3 2.29 C 8.1 km/h
607 20-01-2022 02:30:00 4.2 C 6.12 g/m*3 1.77 C 9.7 km/h
608 20-01-2022 02:35:00 4.2 C 6.12 g/m*3 4.2 C 4.8 km/h
609 20-01-2022 02:40:00 4.2 C 6.12 g/m*3 4.2 C 3.2 km/h
610 20-01-2022 02:45:00 4.2 C 6.12 g/m*3 2.67 C 6.4 km/h
611 20-01-2022 02:50:00 4.1 C 6.08 g/m*3 2.05 C 8.1 km/h
612 20-01-2022 02:55:00 4.1 C 6.08 g/m*3 2.05 C 8.1 km/h
613 20-01-2022 03:00:00 4.1 C 6.08 g/m*3 1.31 C 11.3 km/h
614 20-01-2022 03:05:00 4.1 C 6.02 g/m*3 4.1 C 1.6 km/h
615 20-01-2022 03:10:00 3.9 C 5.94 g/m*3 3.9 C 0 km/h
616 20-01-2022 03:15:00 3.8 C 5.9 g/m*3 3.8 C 0 km/h
617 20-01-2022 03:20:00 3.7 C 5.86 g/m*3 1.58 C 8.1 km/h
618 20-01-2022 03:25:00 3.6 C 5.82 g/m*3 1.98 C 6.4 km/h
619 20-01-2022 03:30:00 3.7 C 5.92 g/m*3 0.82 C 11.3 km/h
620 20-01-2022 03:35:00 3.8 C 5.96 g/m*3 2.21 C 6.4 km/h
621 20-01-2022 03:40:00 3.8 C 5.96 g/m*3 2.21 C 6.4 km/h
622 20-01-2022 03:45:00 3.9 C 6 g/m*3 3.9 C 4.8 km/h
623 20-01-2022 03:50:00 3.9 C 6 g/m*3 3.9 C 4.8 km/h
624 20-01-2022 03:55:00 3.9 C 6 g/m*3 3.9 C 3.2 km/h
625 20-01-2022 04:00:00 3.9 C 6 g/m*3 2.32 C 6.4 km/h
Sensor: Nr:Datum:Temp:Abs-Feuchte:Windchill:Wind:
Aussen-T/F 626 20-01-2022 04:05:00 3.9 C 6 g/m*3 3.9 C 4.8 km/h
627 20-01-2022 04:10:00 3.9 C 6 g/m*3 3.9 C 3.2 km/h
628 20-01-2022 04:15:00 3.9 C 6 g/m*3 3.9 C 4.8 km/h
629 20-01-2022 04:20:00 3.9 C 6 g/m*3 3.9 C 4.8 km/h
630 20-01-2022 04:25:00 4 C 6.04 g/m*3 1.93 C 8.1 km/h
631 20-01-2022 04:30:00 4.1 C 6.08 g/m*3 1.65 C 9.7 km/h
632 20-01-2022 04:35:00 4.1 C 6.02 g/m*3 2.55 C 6.4 km/h
633 20-01-2022 04:40:00 4.2 C 6.06 g/m*3 1.43 C 11.3 km/h
634 20-01-2022 04:45:00 4.2 C 6.06 g/m*3 2.17 C 8.1 km/h
635 20-01-2022 04:50:00 4.2 C 6.06 g/m*3 2.17 C 8.1 km/h
636 20-01-2022 04:55:00 4.2 C 6.06 g/m*3 4.2 C 4.8 km/h
637 20-01-2022 05:00:00 4.2 C 5.99 g/m*3 2.17 C 8.1 km/h
638 20-01-2022 05:05:00 4.1 C 5.95 g/m*3 1.65 C 9.7 km/h
639 20-01-2022 05:10:00 4.1 C 5.95 g/m*3 1.65 C 9.7 km/h
640 20-01-2022 05:15:00 4.1 C 5.95 g/m*3 4.1 C 4.8 km/h
641 20-01-2022 05:20:00 4.2 C 5.99 g/m*3 1.77 C 9.7 km/h
642 20-01-2022 05:25:00 4.2 C 5.99 g/m*3 2.67 C 6.4 km/h
643 20-01-2022 05:30:00 4.2 C 5.93 g/m*3 1.77 C 9.7 km/h
644 20-01-2022 05:35:00 4.2 C 5.93 g/m*3 4.2 C 4.8 km/h
645 20-01-2022 05:40:00 4.1 C 5.95 g/m*3 2.55 C 6.4 km/h
646 20-01-2022 05:45:00 4.1 C 5.95 g/m*3 2.55 C 6.4 km/h
647 20-01-2022 05:50:00 4.1 C 5.95 g/m*3 2.55 C 6.4 km/h
648 20-01-2022 05:55:00 4.1 C 5.95 g/m*3 2.05 C 8.1 km/h
649 20-01-2022 06:00:00 4.1 C 5.95 g/m*3 1.65 C 9.7 km/h
650 20-01-2022 06:05:00 4.1 C 5.95 g/m*3 2.05 C 8.1 km/h
Sensor: Nr:Datum:Temp:Abs-Feuchte:Windchill:Wind:
Aussen-T/F 651 20-01-2022 06:10:00 4.1 C 5.95 g/m*3 1.31 C 11.3 km/h
652 20-01-2022 06:15:00 4.2 C 5.93 g/m*3 1.43 C 11.3 km/h
653 20-01-2022 06:20:00 4.2 C 5.93 g/m*3 1.43 C 11.3 km/h
654 20-01-2022 06:25:00 4.2 C 5.93 g/m*3 1.43 C 11.3 km/h
655 20-01-2022 06:30:00 4.3 C 5.97 g/m*3 1.24 C 12.9 km/h
656 20-01-2022 06:35:00 4.3 C 5.97 g/m*3 0.72 C 16.1 km/h
657 20-01-2022 06:40:00 4.3 C 5.97 g/m*3 0.72 C 16.1 km/h
658 20-01-2022 06:45:00 4.3 C 5.97 g/m*3 1.89 C 9.7 km/h
659 20-01-2022 06:50:00 4.3 C 5.97 g/m*3 2.29 C 8.1 km/h
660 20-01-2022 06:55:00 4.3 C 5.97 g/m*3 1.55 C 11.3 km/h
661 20-01-2022 07:00:00 4.3 C 5.97 g/m*3 2.29 C 8.1 km/h
662 20-01-2022 07:05:00 4.2 C 5.93 g/m*3 0.59 C 16.1 km/h
663 20-01-2022 07:10:00 4.2 C 5.93 g/m*3 0.84 C 14.5 km/h
664 20-01-2022 07:15:00 4.2 C 5.93 g/m*3 2.67 C 6.4 km/h
665 20-01-2022 07:20:00 4.2 C 5.93 g/m*3 1.77 C 9.7 km/h
666 20-01-2022 07:25:00 4.1 C 5.89 g/m*3 4.1 C 4.8 km/h
667 20-01-2022 07:30:00 4.1 C 5.89 g/m*3 1 C 12.9 km/h
668 20-01-2022 07:35:00 4.1 C 5.89 g/m*3 1.31 C 11.3 km/h
669 20-01-2022 07:40:00 4.2 C 5.93 g/m*3 1.43 C 11.3 km/h
670 20-01-2022 07:45:00 4.2 C 5.93 g/m*3 1.43 C 11.3 km/h
671 20-01-2022 07:50:00 4.2 C 5.93 g/m*3 1.43 C 11.3 km/h
672 20-01-2022 07:55:00 4.2 C 5.93 g/m*3 1.12 C 12.9 km/h
673 20-01-2022 08:00:00 4.3 C 5.97 g/m*3 2.78 C 6.4 km/h
674 20-01-2022 08:05:00 4.3 C 5.97 g/m*3 0.97 C 14.5 km/h
675 20-01-2022 08:10:00 4.3 C 5.97 g/m*3 0.49 C 17.7 km/h
Sensor: Nr:Datum:Temp:Abs-Feuchte:Windchill:Wind:
Aussen-T/F 676 20-01-2022 08:15:00 4.4 C 5.94 g/m*3 0.84 C 16.1 km/h
677 20-01-2022 08:20:00 4.5 C 5.98 g/m*3 1.48 C 12.9 km/h
678 20-01-2022 08:25:00 4.5 C 5.98 g/m*3 1.48 C 12.9 km/h
679 20-01-2022 08:30:00 4.6 C 5.96 g/m*3 1.09 C 16.1 km/h
680 20-01-2022 08:35:00 4.6 C 5.96 g/m*3 1.09 C 16.1 km/h
681 20-01-2022 08:40:00 4.6 C 5.96 g/m*3 0.45 C 20.9 km/h
682 20-01-2022 08:45:00 4.6 C 5.96 g/m*3 -0.23 C 27.4 km/h
683 20-01-2022 08:50:00 4.4 C 5.88 g/m*3 0.01 C 22.5 km/h
684 20-01-2022 08:55:00 4.3 C 5.84 g/m*3 0.27 C 19.3 km/h
685 20-01-2022 09:00:00 4.2 C 5.8 g/m*3 1.12 C 12.9 km/h
686 20-01-2022 09:05:00 4.1 C 5.76 g/m*3 0.47 C 16.1 km/h
687 20-01-2022 09:10:00 4 C 5.72 g/m*3 1.53 C 9.7 km/h
688 20-01-2022 09:15:00 3.9 C 5.68 g/m*3 1.06 C 11.3 km/h
689 20-01-2022 09:20:00 3.9 C 5.68 g/m*3 2.32 C 6.4 km/h
690 20-01-2022 09:25:00 3.9 C 5.68 g/m*3 0.47 C 14.5 km/h
691 20-01-2022 09:30:00 3.8 C 5.58 g/m*3 0.63 C 12.9 km/h
692 20-01-2022 09:35:00 3.8 C 5.58 g/m*3 2.21 C 6.4 km/h
693 20-01-2022 09:40:00 3.8 C 5.58 g/m*3 2.21 C 6.4 km/h
694 20-01-2022 09:45:00 3.8 C 5.52 g/m*3 0.1 C 16.1 km/h
695 20-01-2022 09:50:00 3.8 C 5.52 g/m*3 3.8 C 3.2 km/h
696 20-01-2022 09:55:00 3.8 C 5.52 g/m*3 1.29 C 9.7 km/h
697 20-01-2022 10:00:00 3.8 C 5.58 g/m*3 3.8 C 3.2 km/h
698 20-01-2022 10:05:00 3.8 C 5.58 g/m*3 3.8 C 4.8 km/h
699 20-01-2022 10:10:00 3.9 C 5.62 g/m*3 0.75 C 12.9 km/h
700 20-01-2022 10:15:00 3.9 C 5.62 g/m*3 3.9 C 4.8 km/h
Sensor: Nr:Datum:Temp:Abs-Feuchte:Windchill:Wind:
Aussen-T/F 701 20-01-2022 10:20:00 3.9 C 5.62 g/m*3 1.06 C 11.3 km/h
702 20-01-2022 10:25:00 3.9 C 5.62 g/m*3 2.32 C 6.4 km/h
703 20-01-2022 10:30:00 3.9 C 5.62 g/m*3 1.41 C 9.7 km/h
704 20-01-2022 10:35:00 3.9 C 5.62 g/m*3 1.41 C 9.7 km/h
705 20-01-2022 10:40:00 3.9 C 5.62 g/m*3 2.32 C 6.4 km/h
706 20-01-2022 10:45:00 4 C 5.66 g/m*3 0.88 C 12.9 km/h
707 20-01-2022 10:50:00 4 C 5.66 g/m*3 1.93 C 8.1 km/h
708 20-01-2022 10:55:00 3.9 C 5.56 g/m*3 1.41 C 9.7 km/h
709 20-01-2022 11:00:00 3.9 C 5.56 g/m*3 2.32 C 6.4 km/h
710 20-01-2022 11:05:00 3.9 C 5.56 g/m*3 1.41 C 9.7 km/h
711 20-01-2022 11:10:00 3.9 C 5.49 g/m*3 0.75 C 12.9 km/h
712 20-01-2022 11:15:00 3.9 C 5.49 g/m*3 1.41 C 9.7 km/h
713 20-01-2022 11:20:00 3.9 C 5.49 g/m*3 2.32 C 6.4 km/h
714 20-01-2022 11:25:00 3.8 C 5.46 g/m*3 3.8 C 4.8 km/h
715 20-01-2022 11:30:00 3.8 C 5.46 g/m*3 1.29 C 9.7 km/h
716 20-01-2022 11:35:00 3.8 C 5.4 g/m*3 0.94 C 11.3 km/h
717 20-01-2022 11:40:00 3.8 C 5.4 g/m*3 1.7 C 8.1 km/h
718 20-01-2022 11:45:00 3.9 C 5.37 g/m*3 0.47 C 14.5 km/h
719 20-01-2022 11:50:00 3.9 C 5.37 g/m*3 2.32 C 6.4 km/h
720 20-01-2022 11:55:00 4 C 5.4 g/m*3 1.53 C 9.7 km/h
721 20-01-2022 12:00:00 3.9 C 5.43 g/m*3 1.06 C 11.3 km/h
722 20-01-2022 12:05:00 3.9 C 5.49 g/m*3 2.32 C 6.4 km/h
723 20-01-2022 12:10:00 3.9 C 5.49 g/m*3 1.06 C 11.3 km/h
724 20-01-2022 12:15:00 4 C 5.53 g/m*3 1.93 C 8.1 km/h
725 20-01-2022 12:20:00 4.1 C 5.5 g/m*3 0.24 C 17.7 km/h
Sensor: Nr:Datum:Temp:Abs-Feuchte:Windchill:Wind:
Aussen-T/F 726 20-01-2022 12:25:00 4.2 C 5.48 g/m*3 1.77 C 9.7 km/h
727 20-01-2022 12:30:00 4.2 C 5.41 g/m*3 0.59 C 16.1 km/h
728 20-01-2022 12:35:00 4.2 C 5.48 g/m*3 1.77 C 9.7 km/h
729 20-01-2022 12:40:00 4.2 C 5.35 g/m*3 0.84 C 14.5 km/h
730 20-01-2022 12:45:00 4.2 C 5.35 g/m*3 1.12 C 12.9 km/h
731 20-01-2022 12:50:00 4.2 C 5.28 g/m*3 0.59 C 16.1 km/h
732 20-01-2022 12:55:00 4.3 C 5.32 g/m*3 1.55 C 11.3 km/h
733 20-01-2022 13:00:00 4.3 C 5.25 g/m*3 1.24 C 12.9 km/h
734 20-01-2022 13:05:00 4.4 C 5.16 g/m*3 0.61 C 17.7 km/h
735 20-01-2022 13:10:00 4.4 C 5.09 g/m*3 0.4 C 19.3 km/h
736 20-01-2022 13:15:00 4.6 C 5.16 g/m*3 1.91 C 11.3 km/h
737 20-01-2022 13:20:00 4.6 C 5.1 g/m*3 1.09 C 16.1 km/h
738 20-01-2022 13:25:00 4.6 C 5.16 g/m*3 1.34 C 14.5 km/h
739 20-01-2022 13:30:00 4.6 C 5.16 g/m*3 1.09 C 16.1 km/h
740 20-01-2022 13:35:00 4.6 C 5.1 g/m*3 1.09 C 16.1 km/h
741 20-01-2022 13:40:00 4.6 C 5.16 g/m*3 1.91 C 11.3 km/h
742 20-01-2022 13:45:00 4.6 C 5.03 g/m*3 -0.23 C 27.4 km/h
743 20-01-2022 13:50:00 4.5 C 5.06 g/m*3 1.79 C 11.3 km/h
744 20-01-2022 13:55:00 4.4 C 5.09 g/m*3 1.09 C 14.5 km/h
745 20-01-2022 14:00:00 4.3 C 5.06 g/m*3 1.89 C 9.7 km/h
746 20-01-2022 14:05:00 4.2 C 5.09 g/m*3 0.36 C 17.7 km/h
747 20-01-2022 14:10:00 4.1 C 5.12 g/m*3 -0.37 C 22.5 km/h
748 20-01-2022 14:15:00 4 C 5.15 g/m*3 0.88 C 12.9 km/h
749 20-01-2022 14:20:00 3.9 C 5.18 g/m*3 1.82 C 8.1 km/h
750 20-01-2022 14:25:00 3.9 C 5.18 g/m*3 1.41 C 9.7 km/h
Sensor: Nr:Datum:Temp:Abs-Feuchte:Windchill:Wind:
Aussen-T/F 751 20-01-2022 14:30:00 3.8 C 5.14 g/m*3 0.1 C 16.1 km/h
752 20-01-2022 14:35:00 3.8 C 5.14 g/m*3 -0.75 C 22.5 km/h
753 20-01-2022 14:40:00 3.7 C 5.17 g/m*3 0.23 C 14.5 km/h
754 20-01-2022 14:45:00 3.7 C 5.17 g/m*3 0.23 C 14.5 km/h
755 20-01-2022 14:50:00 3.6 C 5.14 g/m*3 0.39 C 12.9 km/h
756 20-01-2022 14:55:00 3.6 C 5.08 g/m*3 1.46 C 8.1 km/h
757 20-01-2022 15:00:00 3.5 C 5.04 g/m*3 0.27 C 12.9 km/h
758 20-01-2022 15:05:00 3.5 C 5.04 g/m*3 0.27 C 12.9 km/h
759 20-01-2022 15:10:00 3.6 C 5.08 g/m*3 1.06 C 9.7 km/h
760 20-01-2022 15:15:00 3.7 C 5.11 g/m*3 0.23 C 14.5 km/h
761 20-01-2022 15:20:00 3.7 C 5.11 g/m*3 1.18 C 9.7 km/h
762 20-01-2022 15:25:00 3.7 C 5.11 g/m*3 0.82 C 11.3 km/h
763 20-01-2022 15:30:00 3.7 C 5.11 g/m*3 0.82 C 11.3 km/h
764 20-01-2022 15:35:00 3.7 C 5.11 g/m*3 1.58 C 8.1 km/h
765 20-01-2022 15:40:00 3.7 C 5.11 g/m*3 1.18 C 9.7 km/h
766 20-01-2022 15:45:00 3.7 C 5.11 g/m*3 3.7 C 4.8 km/h
767 20-01-2022 15:50:00 3.7 C 5.11 g/m*3 1.58 C 8.1 km/h
768 20-01-2022 15:55:00 3.7 C 5.17 g/m*3 3.7 C 3.2 km/h
769 20-01-2022 16:00:00 3.7 C 5.11 g/m*3 2.09 C 6.4 km/h
770 20-01-2022 16:05:00 3.7 C 5.17 g/m*3 2.09 C 6.4 km/h
771 20-01-2022 16:10:00 3.7 C 5.17 g/m*3 3.7 C 4.8 km/h
772 20-01-2022 16:15:00 3.7 C 5.23 g/m*3 3.7 C 3.2 km/h
773 20-01-2022 16:20:00 3.6 C 5.2 g/m*3 1.98 C 6.4 km/h
774 20-01-2022 16:25:00 3.5 C 5.16 g/m*3 0.58 C 11.3 km/h
775 20-01-2022 16:30:00 3.4 C 5.19 g/m*3 0.14 C 12.9 km/h
Sensor: Nr:Datum:Temp:Abs-Feuchte:Windchill:Wind:
Aussen-T/F 776 20-01-2022 16:35:00 3.3 C 5.22 g/m*3 0.34 C 11.3 km/h
777 20-01-2022 16:40:00 3.1 C 5.21 g/m*3 3.1 C 4.8 km/h
778 20-01-2022 16:45:00 3 C 5.23 g/m*3 3 C 4.8 km/h
779 20-01-2022 16:50:00 2.9 C 5.26 g/m*3 2.9 C 3.2 km/h
780 20-01-2022 16:55:00 2.9 C 5.26 g/m*3 2.9 C 1.6 km/h
781 20-01-2022 17:00:00 2.8 C 5.28 g/m*3 2.8 C 4.8 km/h
782 20-01-2022 17:05:00 2.8 C 5.28 g/m*3 2.8 C 4.8 km/h
783 20-01-2022 17:10:00 2.7 C 5.24 g/m*3 -0.38 C 11.3 km/h
784 20-01-2022 17:15:00 2.8 C 5.28 g/m*3 0.52 C 8.1 km/h
785 20-01-2022 17:20:00 2.8 C 5.28 g/m*3 0.52 C 8.1 km/h
786 20-01-2022 17:25:00 2.8 C 5.22 g/m*3 0.1 C 9.7 km/h
787 20-01-2022 17:30:00 2.9 C 5.14 g/m*3 0.64 C 8.1 km/h
788 20-01-2022 17:35:00 3.1 C 5.09 g/m*3 0.46 C 9.7 km/h
789 20-01-2022 17:40:00 3.3 C 5.1 g/m*3 -0.52 C 16.1 km/h
790 20-01-2022 17:45:00 3.4 C 5.07 g/m*3 -0.4 C 16.1 km/h
791 20-01-2022 17:50:00 3.6 C 5.08 g/m*3 0.39 C 12.9 km/h
792 20-01-2022 17:55:00 3.6 C 5.01 g/m*3 -0.39 C 17.7 km/h
793 20-01-2022 18:00:00 3.6 C 5.01 g/m*3 1.06 C 9.7 km/h
794 20-01-2022 18:05:00 3.5 C 5.04 g/m*3 1.86 C 6.4 km/h
795 20-01-2022 18:10:00 3.4 C 5.01 g/m*3 0.82 C 9.7 km/h
796 20-01-2022 18:15:00 3.3 C 4.97 g/m*3 1.11 C 8.1 km/h
797 20-01-2022 18:20:00 3.3 C 4.97 g/m*3 3.3 C 4.8 km/h
798 20-01-2022 18:25:00 3.4 C 5.01 g/m*3 3.4 C 4.8 km/h
799 20-01-2022 18:30:00 3.3 C 5.04 g/m*3 1.11 C 8.1 km/h
800 20-01-2022 18:35:00 3.3 C 5.04 g/m*3 1.11 C 8.1 km/h
Sensor: Nr:Datum:Temp:Abs-Feuchte:Windchill:Wind:
Aussen-T/F 801 20-01-2022 18:40:00 3.2 C 5 g/m*3 0.22 C 11.3 km/h
802 20-01-2022 18:45:00 3.2 C 5 g/m*3 -0.1 C 12.9 km/h
803 20-01-2022 18:50:00 3.3 C 5.04 g/m*3 0.02 C 12.9 km/h
804 20-01-2022 18:55:00 3.3 C 5.04 g/m*3 0.02 C 12.9 km/h
805 20-01-2022 19:00:00 3.2 C 5 g/m*3 0.22 C 11.3 km/h
806 20-01-2022 19:05:00 3.2 C 5 g/m*3 1.51 C 6.4 km/h
807 20-01-2022 19:10:00 3.2 C 5 g/m*3 1.51 C 6.4 km/h
808 20-01-2022 19:15:00 3.2 C 5.06 g/m*3 0.22 C 11.3 km/h
809 20-01-2022 19:20:00 3.2 C 5.06 g/m*3 0.22 C 11.3 km/h
810 20-01-2022 19:25:00 3.2 C 5.06 g/m*3 1.51 C 6.4 km/h
811 20-01-2022 19:30:00 3.2 C 5.12 g/m*3 -0.39 C 14.5 km/h
812 20-01-2022 19:35:00 3.3 C 5.1 g/m*3 0.34 C 11.3 km/h
813 20-01-2022 19:40:00 3.3 C 5.1 g/m*3 0.02 C 12.9 km/h
814 20-01-2022 19:45:00 3.3 C 5.16 g/m*3 0.34 C 11.3 km/h
815 20-01-2022 19:50:00 3.3 C 5.16 g/m*3 0.7 C 9.7 km/h
816 20-01-2022 19:55:00 3.3 C 5.16 g/m*3 0.02 C 12.9 km/h
817 20-01-2022 20:00:00 3.2 C 5.12 g/m*3 -0.1 C 12.9 km/h
818 20-01-2022 20:05:00 3.2 C 5.12 g/m*3 -0.1 C 12.9 km/h
819 20-01-2022 20:10:00 3.1 C 5.09 g/m*3 0.1 C 11.3 km/h
820 20-01-2022 20:15:00 3.1 C 5.15 g/m*3 -0.51 C 14.5 km/h
821 20-01-2022 20:20:00 3.1 C 5.15 g/m*3 1.4 C 6.4 km/h
822 20-01-2022 20:25:00 3.1 C 5.15 g/m*3 0.87 C 8.1 km/h
823 20-01-2022 20:30:00 3 C 5.05 g/m*3 3 C 4.8 km/h
824 20-01-2022 20:35:00 3 C 5.11 g/m*3 1.28 C 6.4 km/h
825 20-01-2022 20:40:00 2.9 C 5.02 g/m*3 1.17 C 6.4 km/h
Sensor: Nr:Datum:Temp:Abs-Feuchte:Windchill:Wind:
Aussen-T/F 826 20-01-2022 20:45:00 2.9 C 5.02 g/m*3 0.22 C 9.7 km/h
827 20-01-2022 20:50:00 3 C 5.05 g/m*3 -0.02 C 11.3 km/h
828 20-01-2022 20:55:00 3 C 5.05 g/m*3 1.28 C 6.4 km/h
829 20-01-2022 21:00:00 3 C 5.05 g/m*3 0.76 C 8.1 km/h
830 20-01-2022 21:05:00 3 C 5.05 g/m*3 1.28 C 6.4 km/h
831 20-01-2022 21:10:00 3 C 5.05 g/m*3 0.76 C 8.1 km/h
832 20-01-2022 21:15:00 2.9 C 5.08 g/m*3 -0.14 C 11.3 km/h
833 20-01-2022 21:20:00 2.9 C 5.08 g/m*3 -0.46 C 12.9 km/h
834 20-01-2022 21:25:00 2.9 C 5.08 g/m*3 -0.14 C 11.3 km/h
835 20-01-2022 21:30:00 2.8 C 5.04 g/m*3 2.8 C 4.8 km/h
836 20-01-2022 21:35:00 2.8 C 5.04 g/m*3 1.05 C 6.4 km/h
837 20-01-2022 21:40:00 2.8 C 5.04 g/m*3 1.05 C 6.4 km/h
838 20-01-2022 21:45:00 2.8 C 5.04 g/m*3 -0.26 C 11.3 km/h
839 20-01-2022 21:50:00 2.8 C 5.04 g/m*3 0.1 C 9.7 km/h
840 20-01-2022 21:55:00 2.8 C 5.04 g/m*3 -0.26 C 11.3 km/h
841 20-01-2022 22:00:00 2.8 C 5.04 g/m*3 1.05 C 6.4 km/h
842 20-01-2022 22:05:00 2.8 C 5.04 g/m*3 2.8 C 4.8 km/h
843 20-01-2022 22:10:00 2.8 C 5.1 g/m*3 0.52 C 8.1 km/h
844 20-01-2022 22:15:00 2.8 C 5.1 g/m*3 0.52 C 8.1 km/h
845 20-01-2022 22:20:00 2.8 C 5.1 g/m*3 0.1 C 9.7 km/h
846 20-01-2022 22:25:00 2.8 C 5.1 g/m*3 2.8 C 3.2 km/h
847 20-01-2022 22:30:00 2.8 C 5.1 g/m*3 0.1 C 9.7 km/h
848 20-01-2022 22:35:00 2.8 C 5.1 g/m*3 -0.26 C 11.3 km/h
849 20-01-2022 22:40:00 2.8 C 5.1 g/m*3 1.05 C 6.4 km/h
850 20-01-2022 22:45:00 2.7 C 5.01 g/m*3 -0.38 C 11.3 km/h
Sensor: Nr:Datum:Temp:Abs-Feuchte:Windchill:Wind:
Aussen-T/F 851 20-01-2022 22:50:00 2.8 C 5.04 g/m*3 -0.59 C 12.9 km/h
852 20-01-2022 22:55:00 2.8 C 5.04 g/m*3 -0.59 C 12.9 km/h
853 20-01-2022 23:00:00 2.8 C 5.04 g/m*3 0.1 C 9.7 km/h
854 20-01-2022 23:05:00 2.8 C 5.04 g/m*3 1.05 C 6.4 km/h
855 20-01-2022 23:10:00 2.8 C 5.04 g/m*3 1.05 C 6.4 km/h
856 20-01-2022 23:15:00 2.7 C 5.01 g/m*3 0.94 C 6.4 km/h
857 20-01-2022 23:20:00 2.7 C 5.01 g/m*3 -0.02 C 9.7 km/h
858 20-01-2022 23:25:00 2.7 C 5.07 g/m*3 -0.02 C 9.7 km/h
859 20-01-2022 23:30:00 2.7 C 5.07 g/m*3 -0.02 C 9.7 km/h
860 20-01-2022 23:35:00 2.6 C 5.03 g/m*3 -0.14 C 9.7 km/h
861 20-01-2022 23:40:00 2.6 C 5.03 g/m*3 0.82 C 6.4 km/h
862 20-01-2022 23:45:00 2.6 C 5.03 g/m*3 -0.14 C 9.7 km/h
863 20-01-2022 23:50:00 2.6 C 5.03 g/m*3 -0.14 C 9.7 km/h
864 20-01-2022 23:55:00 2.6 C 5.03 g/m*3 -0.5 C 11.3 km/h

Legende:
   Min
   Max


Maximal/Minimal-Werte vom 18.01.2022 - 20.01.2022

Sensor Min Max Avg
Temp
(Aussen-T/F)
2.1 °C
19-01-2022  10:00:00
7.7 °C
18-01-2022  14:10:00
4.65 °C
Abs-Feuchte
(Aussen-T/F)
4.97 g/m*3
20-01-2022  18:15:00
7.46 g/m*3
18-01-2022  14:10:00
6.03 g/m*3
Windchill
(Aussen-T/F)
-1.06 C
19-01-2022  19:30:00
7.7 C
18-01-2022  14:10:00
3.31 C

Die Daten stammen von einer Davis Vantage Pro 2 Wetter-Station und werden unter Linux mit der Software wview2wettercgi und aufbereitet. Alle Angaben erfolgen ohne Gewähr für ihre Vollständigkeit oder Richtigkeit.
Kontakt: Rainer Krienke krienke@uni-koblenz.de . Meine Webseiten an der Uni Koblenz oder privat.
Version: $Revision: 0.78 $